Time;durP1;ratioP1;P1;durP2;ratioP2;P2;SDS_P1;SDS_P2;PMS_P1;PMS_P2;Temp;Humidity;BMP_temperature;BMP_pressure;BME280_temperature;BME280_humidity;BME280_pressure;Samples;Min_cycle;Max_cycle;Signal;HPM_P1;HPM_P2
2022/06/24 00:00:58;;;;;;;17.17;7.03;;;;;21.10;95883.00;;;;8382868;28;20212;-76
2022/06/24 00:05:03;;;;;;;11.52;7.85;;;;;21.10;95877.00;;;;8380394;28;20342;-77
2022/06/24 00:09:06;;;;;;;10.00;7.03;;;;;21.10;95891.00;;;;8382780;28;20961;-78
2022/06/24 00:13:11;;;;;;;17.85;7.47;;;;;21.00;95894.00;;;;8384494;28;20207;-78
2022/06/24 00:17:15;;;;;;;11.38;6.90;;;;;20.80;95899.00;;;;8385280;28;20199;-78
2022/06/24 00:21:18;;;;;;;11.68;7.25;;;;;20.80;95905.00;;;;8385326;28;20323;-77
2022/06/24 00:25:23;;;;;;;11.45;7.93;;;;;20.70;95891.00;;;;8387830;28;20716;-76
2022/06/24 00:29:30;;;;;;;9.27;6.80;;;;;20.70;95894.00;;;;8386061;28;20208;-78
2022/06/24 00:33:35;;;;;;;8.02;7.13;;;;;20.60;95877.00;;;;8386242;28;20201;-76
2022/06/24 00:37:40;;;;;;;11.07;7.85;;;;;20.60;95864.00;;;;8386478;28;20297;-76
2022/06/24 00:41:44;;;;;;;14.00;8.00;;;;;20.40;95856.00;;;;8384012;28;20235;-77
2022/06/24 00:45:52;;;;;;;14.15;7.70;;;;;20.30;95853.00;;;;8383309;28;20218;-77
2022/06/24 00:49:58;;;;;;;11.70;7.90;;;;;20.20;95845.00;;;;8386690;28;20208;-80
2022/06/24 00:54:08;;;;;;;14.18;7.55;;;;;20.30;95844.00;;;;8384336;28;20303;-76
2022/06/24 00:58:14;;;;;;;10.57;6.90;;;;;20.50;95846.00;;;;8384890;28;20204;-78
2022/06/24 01:02:19;;;;;;;11.02;7.47;;;;;20.60;95843.00;;;;8384104;28;20243;-76
2022/06/24 01:06:22;;;;;;;13.00;7.50;;;;;20.70;95847.00;;;;8384752;28;20204;-75
2022/06/24 01:10:26;;;;;;;10.30;8.20;;;;;20.60;95848.00;;;;8384912;28;20287;-74
2022/06/24 01:14:30;;;;;;;11.00;7.97;;;;;20.60;95848.00;;;;8375420;28;20207;-74
2022/06/24 01:18:34;;;;;;;12.52;7.70;;;;;20.70;95853.00;;;;8382205;28;20726;-75
2022/06/24 01:22:40;;;;;;;18.95;8.32;;;;;20.80;95845.00;;;;8378767;28;20220;-77
2022/06/24 01:26:45;;;;;;;13.57;7.78;;;;;20.70;95835.00;;;;8376087;28;20298;-75
2022/06/24 01:30:53;;;;;;;17.33;8.20;;;;;20.70;95835.00;;;;8376515;28;20203;-77
2022/06/24 01:34:57;;;;;;;12.48;7.57;;;;;20.60;95833.00;;;;8378306;28;20204;-77
2022/06/24 01:39:01;;;;;;;10.75;8.23;;;;;20.60;95829.00;;;;8382893;28;20823;-76
2022/06/24 01:43:05;;;;;;;13.88;8.75;;;;;20.50;95818.00;;;;8376322;28;20316;-77
2022/06/24 01:47:08;;;;;;;20.25;8.45;;;;;20.30;95821.00;;;;8382475;28;20196;-77
2022/06/24 01:51:14;;;;;;;12.20;7.95;;;;;20.10;95818.00;;;;8380559;28;20671;-75
2022/06/24 01:55:19;;;;;;;11.05;8.15;;;;;20.20;95814.00;;;;8380982;28;20207;-76
2022/06/24 01:59:22;;;;;;;16.90;8.93;;;;;20.10;95815.00;;;;8380934;28;20600;-75
2022/06/24 02:03:25;;;;;;;11.85;7.50;;;;;20.20;95818.00;;;;8339522;28;1213244;-75
2022/06/24 02:07:28;;;;;;;11.75;7.85;;;;;20.20;95814.00;;;;8373471;28;20224;-76
2022/06/24 02:15:55;;;;;;;12.27;7.57;;;;;20.30;95813.00;;;;8381860;28;20203;-75
2022/06/24 02:19:58;;;;;;;15.52;8.15;;;;;20.30;95808.00;;;;8385978;28;20470;-78
2022/06/24 02:24:01;;;;;;;15.48;8.23;;;;;20.40;95806.00;;;;8382654;28;20246;-77
2022/06/24 02:28:06;;;;;;;18.40;9.10;;;;;20.50;95799.00;;;;8389839;28;20218;-76
2022/06/24 02:32:10;;;;;;;15.50;7.55;;;;;20.60;95799.00;;;;8388483;28;20211;-76
2022/06/24 02:36:13;;;;;;;16.23;8.65;;;;;20.60;95788.00;;;;8385594;28;20669;-78
2022/06/24 02:44:38;;;;;;;15.90;8.07;;;;;20.70;95803.00;;;;8381491;28;20238;-78
2022/06/24 02:48:46;;;;;;;17.08;7.55;;;;;20.80;95798.00;;;;8387721;28;20257;-77
2022/06/24 02:52:49;;;;;;;16.92;7.90;;;;;20.80;95796.00;;;;8391121;28;20191;-76
2022/06/24 02:56:52;;;;;;;17.17;9.07;;;;;20.90;95791.00;;;;8395181;28;20295;-76
2022/06/24 03:05:13;;;;;;;12.00;7.57;;;;;20.90;95792.00;;;;8310881;28;20233;-73
2022/06/24 03:09:16;;;;;;;17.13;7.75;;;;;21.00;95801.00;;;;8326967;28;20190;-78
2022/06/24 03:13:19;;;;;;;19.67;7.50;;;;;21.10;95805.00;;;;8311881;28;20202;-78
2022/06/24 03:17:22;;;;;;;22.83;7.53;;;;;21.10;95816.00;;;;8319316;28;20197;-75
2022/06/24 03:21:27;;;;;;;30.83;8.80;;;;;21.10;95827.00;;;;8323327;28;20319;-75
2022/06/24 03:25:30;;;;;;;25.42;7.40;;;;;21.20;95823.00;;;;8309518;28;20631;-76
2022/06/24 03:29:34;;;;;;;19.67;6.55;;;;;21.10;95829.00;;;;8323241;28;20237;-74
2022/06/24 03:33:37;;;;;;;18.50;7.50;;;;;21.10;95828.00;;;;8319830;28;20232;-75
2022/06/24 03:37:41;;;;;;;14.57;7.32;;;;;21.20;95811.00;;;;8319087;28;20216;-75
2022/06/24 03:41:45;;;;;;;13.68;7.15;;;;;21.30;95812.00;;;;8323663;28;20285;-73
2022/06/24 03:45:48;;;;;;;9.57;7.05;;;;;21.50;95803.00;;;;8319507;28;20710;-72
2022/06/24 03:49:51;;;;;;;11.18;7.30;;;;;21.50;95801.00;;;;8319925;28;20237;-73
2022/06/24 03:53:56;;;;;;;12.50;7.45;;;;;21.60;95805.00;;;;8307270;28;20203;-72
2022/06/24 03:58:00;;;;;;;11.90;7.03;;;;;21.50;95799.00;;;;8312546;28;20205;-73
2022/06/24 04:02:03;;;;;;;15.23;8.32;;;;;21.60;95785.00;;;;8321376;28;20694;-73
2022/06/24 04:06:07;;;;;;;10.85;6.80;;;;;21.60;95791.00;;;;8313381;28;20308;-74
2022/06/24 04:10:11;;;;;;;12.27;6.40;;;;;21.60;95808.00;;;;8318781;28;20195;-75
2022/06/24 04:15:13;;;;;;;14.00;6.57;;;;;21.50;95832.00;;;;8327216;28;20201;-75
2022/06/24 04:18:38;;;;;;;14.85;7.07;;;;;21.00;95860.00;;;;8306268;28;20656;-69
2022/06/24 04:22:42;;;;;;;18.42;7.90;;;;;20.50;95859.00;;;;8322605;28;20224;-69
2022/06/24 04:26:47;;;;;;;18.42;8.60;;;;;20.10;95848.00;;;;8311439;28;20305;-71
2022/06/24 04:30:53;;;;;;;14.95;8.68;;;;;19.90;95840.00;;;;8319285;28;20285;-70
2022/06/24 04:34:56;;;;;;;16.80;9.65;;;;;19.60;95827.00;;;;8316298;28;20547;-69
2022/06/24 04:38:59;;;;;;;13.60;9.38;;;;;19.60;95825.00;;;;8318958;28;20212;-68
2022/06/24 04:43:04;;;;;;;17.27;9.93;;;;;19.60;95814.00;;;;8316400;28;20218;-69
2022/06/24 04:47:08;;;;;;;18.80;9.02;;;;;19.70;95818.00;;;;8315226;28;20314;-69
2022/06/24 04:51:12;;;;;;;20.73;9.43;;;;;19.60;95806.00;;;;8316844;28;20312;-69
2022/06/24 04:55:16;;;;;;;18.70;8.57;;;;;19.50;95802.00;;;;8319245;28;20289;-69
2022/06/24 04:59:20;;;;;;;18.20;6.72;;;;;19.50;95818.00;;;;8314590;28;20239;-70
2022/06/24 05:03:24;;;;;;;11.57;6.63;;;;;19.60;95831.00;;;;8318742;28;20243;-70
2022/06/24 05:07:27;;;;;;;15.80;8.10;;;;;19.50;95827.00;;;;8317006;28;20201;-70
2022/06/24 05:11:31;;;;;;;14.20;8.25;;;;;19.50;95837.00;;;;8317859;28;20202;-71
2022/06/24 05:15:36;;;;;;;19.33;8.85;;;;;19.50;95837.00;;;;8317154;28;20208;-72
2022/06/24 05:19:39;;;;;;;14.35;8.00;;;;;19.50;95833.00;;;;8307344;28;20197;-70
2022/06/24 05:23:42;;;;;;;19.35;8.82;;;;;19.60;95840.00;;;;8315567;28;20558;-68
2022/06/24 05:27:47;;;;;;;11.80;7.53;;;;;19.80;95852.00;;;;8315326;28;20316;-71
2022/06/24 05:31:51;;;;;;;21.15;8.70;;;;;19.70;95854.00;;;;8319297;28;20300;-72
2022/06/24 05:35:56;;;;;;;11.30;6.95;;;;;19.80;95867.00;;;;8317506;28;20206;-69
2022/06/24 05:39:59;;;;;;;13.13;6.63;;;;;19.90;95865.00;;;;8317519;28;20200;-71
2022/06/24 05:44:02;;;;;;;10.23;6.57;;;;;20.00;95861.00;;;;8317413;28;20807;-72
2022/06/24 05:48:07;;;;;;;10.00;6.50;;;;;20.20;95864.00;;;;8313947;28;20200;-71
2022/06/24 05:52:11;;;;;;;12.45;6.22;;;;;20.40;95870.00;;;;8315975;28;20205;-72
2022/06/24 05:56:14;;;;;;;15.13;6.20;;;;;20.50;95865.00;;;;8316509;28;20297;-71
2022/06/24 06:00:17;;;;;;;14.20;5.88;;;;;20.80;95866.00;;;;8320955;28;20197;-72
2022/06/24 06:04:22;;;;;;;10.57;5.10;;;;;20.90;95874.00;;;;8327851;28;20323;-73
2022/06/24 06:08:25;;;;;;;10.05;5.18;;;;;21.00;95863.00;;;;8324347;28;20205;-74
2022/06/24 06:12:28;;;;;;;15.98;4.13;;;;;21.10;95866.00;;;;8323205;28;20193;-75
2022/06/24 06:16:32;;;;;;;6.18;4.20;;;;;21.20;95867.00;;;;8320210;28;20209;-76
2022/06/24 06:20:37;;;;;;;7.18;3.92;;;;;21.50;95857.00;;;;8322862;28;20216;-75
2022/06/24 06:24:47;;;;;;;8.52;4.03;;;;;21.70;95861.00;;;;8327520;28;20225;-76
2022/06/24 06:28:50;;;;;;;6.78;3.35;;;;;21.70;95855.00;;;;8330714;28;20212;-71
2022/06/24 06:32:53;;;;;;;11.75;3.35;;;;;22.00;95861.00;;;;8319815;28;20221;-77
2022/06/24 06:36:58;;;;;;;5.28;3.25;;;;;22.80;95869.00;;;;8332026;28;20194;-77
2022/06/24 06:41:01;;;;;;;8.65;3.03;;;;;23.70;95866.00;;;;8311502;28;20194;-76
2022/06/24 06:45:06;;;;;;;4.90;3.13;;;;;24.70;95864.00;;;;8326459;28;20221;-74
2022/06/24 06:49:09;;;;;;;7.07;2.47;;;;;25.40;95855.00;;;;8327343;28;20557;-74
2022/06/24 06:53:14;;;;;;;8.10;2.72;;;;;25.40;95852.00;;;;8331752;28;20292;-73
2022/06/24 06:57:17;;;;;;;6.28;2.60;;;;;26.20;95848.00;;;;8322340;28;20194;-72
2022/06/24 07:01:20;;;;;;;5.47;2.42;;;;;25.80;95855.00;;;;8328992;28;20696;-73
2022/06/24 07:05:23;;;;;;;3.53;2.30;;;;;26.10;95848.00;;;;8322821;28;20308;-75
2022/06/24 07:09:28;;;;;;;6.10;2.28;;;;;26.30;95846.00;;;;8308145;28;20257;-74
2022/06/24 07:13:31;;;;;;;4.13;2.20;;;;;25.90;95835.00;;;;8332679;28;20194;-75
2022/06/24 07:17:34;;;;;;;5.25;2.17;;;;;25.40;95841.00;;;;8327328;28;20707;-74
2022/06/24 07:21:38;;;;;;;2.88;1.67;;;;;25.30;95830.00;;;;8319371;28;20233;-72
2022/06/24 07:25:42;;;;;;;2.20;2.10;;;;;25.40;95831.00;;;;8326128;28;20264;-74
2022/06/24 07:29:46;;;;;;;8.10;2.17;;;;;25.30;95830.00;;;;8327957;28;20198;-73
2022/06/24 07:33:49;;;;;;;5.82;2.35;;;;;25.30;95834.00;;;;8319160;28;20679;-74
2022/06/24 07:37:52;;;;;;;2.70;1.95;;;;;25.30;95810.00;;;;8328429;28;20225;-74
2022/06/24 07:41:57;;;;;;;6.30;2.38;;;;;25.40;95806.00;;;;8318586;28;20198;-73
2022/06/24 07:46:00;;;;;;;4.72;2.00;;;;;25.70;95806.00;;;;8323384;28;20225;-73
2022/06/24 07:50:04;;;;;;;3.20;2.08;;;;;26.00;95809.00;;;;8321672;28;20271;-74
2022/06/24 07:54:08;;;;;;;4.18;2.35;;;;;26.40;95799.00;;;;8314770;28;20760;-74
2022/06/24 07:58:12;;;;;;;3.03;1.90;;;;;26.70;95803.00;;;;8306613;28;20297;-74
2022/06/24 08:02:16;;;;;;;6.20;2.30;;;;;26.50;95808.00;;;;8317780;28;20264;-74
2022/06/24 08:06:19;;;;;;;4.10;2.00;;;;;26.50;95813.00;;;;8325380;28;20259;-75
2022/06/24 08:10:23;;;;;;;2.45;1.70;;;;;26.60;95821.00;;;;8323979;28;20283;-75
2022/06/24 08:14:28;;;;;;;4.85;1.90;;;;;27.10;95822.00;;;;8322784;28;20540;-74
2022/06/24 08:18:31;;;;;;;6.30;1.98;;;;;27.40;95830.00;;;;8324788;28;20198;-75
2022/06/24 08:22:34;;;;;;;2.30;2.10;;;;;27.40;95824.00;;;;8323896;28;20511;-75
2022/06/24 08:26:38;;;;;;;5.13;2.28;;;;;27.40;95816.00;;;;8318964;28;20236;-74
2022/06/24 08:30:43;;;;;;;3.42;2.22;;;;;27.50;95825.00;;;;8314789;28;20237;-73
2022/06/24 08:34:46;;;;;;;4.30;2.55;;;;;27.50;95831.00;;;;8320498;28;20220;-74
2022/06/24 08:39:09;;;;;;;2.90;2.38;;;;;27.50;95833.00;;;;8317162;28;20827;-74
2022/06/24 08:43:13;;;;;;;4.55;2.35;;;;;27.60;95825.00;;;;8320402;28;20194;-73
2022/06/24 08:47:19;;;;;;;3.80;2.30;;;;;27.70;95812.00;;;;8319799;28;20312;-74
2022/06/24 08:51:23;;;;;;;4.32;2.30;;;;;27.90;95812.00;;;;8310330;28;20725;-74
2022/06/24 08:55:28;;;;;;;6.53;2.70;;;;;28.30;95804.00;;;;8328121;28;20193;-74
2022/06/24 08:59:33;;;;;;;5.05;2.58;;;;;28.60;95816.00;;;;8296729;28;20206;-74
2022/06/24 09:03:37;;;;;;;4.78;2.00;;;;;28.30;95804.00;;;;8313475;28;20696;-74
2022/06/24 09:07:40;;;;;;;8.63;2.00;;;;;28.40;95801.00;;;;8325510;28;20311;-73
2022/06/24 09:11:44;;;;;;;3.38;2.15;;;;;28.30;95807.00;;;;8331582;28;20638;-73
2022/06/24 09:15:52;;;;;;;6.85;2.65;;;;;27.90;95808.00;;;;8330441;28;20197;-73
2022/06/24 09:20:07;;;;;;;5.20;2.30;;;;;27.60;95810.00;;;;8318824;28;20229;-73
2022/06/24 09:24:43;;;;;;;7.03;2.05;;;;;27.30;95806.00;;;;8320811;28;20228;-74
2022/06/24 09:28:54;;;;;;;7.60;2.05;;;;;27.10;95807.00;;;;8330023;28;20558;-74
2022/06/24 09:32:58;;;;;;;6.50;2.15;;;;;26.80;95822.00;;;;8323717;28;20251;-76
2022/06/24 09:37:36;;;;;;;7.65;2.70;;;;;26.40;95798.00;;;;8328745;28;20198;-77
2022/06/24 09:41:45;;;;;;;9.40;2.60;;;;;26.10;95799.00;;;;8326111;28;20711;-76
2022/06/24 09:45:49;;;;;;;7.15;3.03;;;;;25.70;95803.00;;;;8317977;28;20257;-75
2022/06/24 09:49:56;;;;;;;7.28;3.00;;;;;25.20;95810.00;;;;8322542;28;20208;-74
2022/06/24 09:54:01;;;;;;;7.03;3.03;;;;;24.70;95817.00;;;;8316314;28;20207;-76
2022/06/24 09:58:05;;;;;;;7.50;3.08;;;;;24.30;95815.00;;;;8318171;28;20198;-76
2022/06/24 10:02:14;;;;;;;7.32;2.67;;;;;24.40;95817.00;;;;8321069;28;20370;-76
2022/06/24 10:06:23;;;;;;;11.02;3.00;;;;;24.30;95823.00;;;;8317234;28;20236;-77
2022/06/24 10:10:31;;;;;;;6.47;2.70;;;;;24.20;95821.00;;;;8316939;28;20233;-78
2022/06/24 10:14:34;;;;;;;7.57;2.67;;;;;24.20;95810.00;;;;8314789;28;20635;-80
2022/06/24 10:18:40;;;;;;;5.78;3.03;;;;;24.40;95810.00;;;;8318271;28;20233;-77
2022/06/24 10:22:45;;;;;;;8.63;3.30;;;;;24.70;95815.00;;;;8316354;28;20213;-78
2022/06/24 10:26:52;;;;;;;5.70;2.50;;;;;24.90;95824.00;;;;8314536;28;20263;-75
2022/06/24 10:30:57;;;;;;;4.78;2.75;;;;;24.90;95829.00;;;;8314634;28;20193;-76
2022/06/24 10:35:06;;;;;;;6.93;2.65;;;;;24.90;95831.00;;;;8315331;28;20197;-78
2022/06/24 10:39:12;;;;;;;6.03;2.72;;;;;25.10;95834.00;;;;8312067;28;20236;-77
2022/06/24 10:43:33;;;;;;;7.80;2.70;;;;;25.10;95818.00;;;;8314798;28;20205;-73
2022/06/24 10:47:41;;;;;;;7.97;3.70;;;;;24.40;95828.00;;;;8311215;28;20231;-69
2022/06/24 10:51:45;;;;;;;8.20;3.50;;;;;23.80;95821.00;;;;8322835;28;20240;-70
2022/06/24 10:55:48;;;;;;;8.40;3.67;;;;;23.50;95807.00;;;;8320200;28;20200;-69
2022/06/24 10:59:52;;;;;;;8.00;3.72;;;;;23.40;95810.00;;;;8319218;28;20239;-70
2022/06/24 11:03:57;;;;;;;9.73;3.63;;;;;22.90;95803.00;;;;8319347;28;20221;-68
2022/06/24 11:08:00;;;;;;;8.52;3.65;;;;;22.70;95790.00;;;;8318344;28;20226;-70
2022/06/24 11:12:05;;;;;;;8.98;3.70;;;;;22.60;95794.00;;;;8321873;28;20201;-70
2022/06/24 11:16:10;;;;;;;9.18;3.40;;;;;22.70;95795.00;;;;8319037;28;20790;-71
2022/06/24 11:20:14;;;;;;;5.55;3.25;;;;;22.70;95793.00;;;;8317039;28;21106;-72
2022/06/24 11:24:19;;;;;;;12.70;3.70;;;;;22.70;95784.00;;;;8320192;28;20284;-73
2022/06/24 11:28:25;;;;;;;7.55;3.55;;;;;22.70;95785.00;;;;8319536;28;20270;-71
2022/06/24 11:32:30;;;;;;;6.80;3.60;;;;;22.50;95785.00;;;;8318211;28;20229;-68
2022/06/24 11:36:35;;;;;;;12.10;4.95;;;;;22.30;95772.00;;;;8316016;28;20206;-69
2022/06/24 11:40:39;;;;;;;15.95;5.00;;;;;22.10;95770.00;;;;8317527;28;20202;-69
2022/06/24 11:44:43;;;;;;;9.88;5.30;;;;;22.00;95762.00;;;;8317973;28;20204;-69
2022/06/24 11:48:48;;;;;;;9.23;4.55;;;;;21.90;95740.00;;;;8317409;28;20226;-69
2022/06/24 11:52:51;;;;;;;11.25;4.55;;;;;21.80;95737.00;;;;8317915;28;20201;-69
2022/06/24 11:56:54;;;;;;;11.07;4.30;;;;;21.70;95746.00;;;;8317506;28;20669;-68
2022/06/24 12:00:58;;;;;;;15.40;4.53;;;;;21.90;95744.00;;;;8319415;28;20244;-68
2022/06/24 12:05:02;;;;;;;10.27;4.68;;;;;22.40;95726.00;;;;8319981;28;20225;-66
2022/06/24 12:09:06;;;;;;;9.25;4.00;;;;;22.90;95732.00;;;;8318861;28;20704;-69
2022/06/24 12:13:09;;;;;;;7.18;3.15;;;;;23.40;95737.00;;;;8317722;28;20684;-71
2022/06/24 12:17:13;;;;;;;7.90;3.70;;;;;24.10;95742.00;;;;8320024;28;20339;-71
2022/06/24 12:21:26;;;;;;;12.23;4.28;;;;;24.40;95745.00;;;;8320287;28;20283;-73
2022/06/24 12:25:39;;;;;;;10.75;3.75;;;;;24.60;95741.00;;;;8298682;28;20289;-73
2022/06/24 12:29:43;;;;;;;9.25;3.63;;;;;25.20;95739.00;;;;8320070;28;20801;-77
2022/06/24 12:33:53;;;;;;;7.95;3.20;;;;;26.60;95742.00;;;;8320610;28;20635;-78
2022/06/24 12:37:58;;;;;;;8.68;2.78;;;;;27.00;95740.00;;;;8320486;28;20276;-83
2022/06/24 12:42:02;;;;;;;7.07;2.85;;;;;26.60;95744.00;;;;8321651;28;20280;-83
2022/06/24 12:46:06;;;;;;;3.15;2.45;;;;;26.50;95743.00;;;;8312728;28;20232;-81
2022/06/24 12:54:35;;;;;;;4.50;2.40;;;;;26.80;95746.00;;;;8305815;28;20281;-82
2022/06/24 12:58:59;;;;;;;7.65;2.42;;;;;27.00;95742.00;;;;8312619;28;20643;-84
2022/06/24 13:03:04;;;;;;;5.05;2.10;;;;;27.60;95726.00;;;;8319538;28;20239;-85
2022/06/24 13:07:07;;;;;;;6.53;2.40;;;;;28.00;95724.00;;;;8320674;28;20767;-84
2022/06/24 13:11:11;;;;;;;4.20;2.38;;;;;28.20;95723.00;;;;8319688;28;20204;-84
2022/06/24 13:15:14;;;;;;;5.20;2.00;;;;;28.60;95715.00;;;;8319759;28;20203;-83
2022/06/24 13:19:18;;;;;;;5.57;2.08;;;;;29.00;95724.00;;;;8319533;28;20228;-81
2022/06/24 13:23:21;;;;;;;3.88;1.90;;;;;29.60;95708.00;;;;8325516;28;20193;-84
2022/06/24 13:27:26;;;;;;;2.83;1.95;;;;;29.60;95715.00;;;;8312853;28;20221;-83
2022/06/24 13:31:29;;;;;;;10.02;2.10;;;;;29.40;95708.00;;;;8308643;28;20217;-83
2022/06/24 13:35:33;;;;;;;3.17;1.98;;;;;29.50;95696.00;;;;8319107;28;20239;-83
2022/06/24 13:39:36;;;;;;;6.80;2.70;;;;;29.60;95691.00;;;;8319446;28;20201;-83
2022/06/24 13:43:41;;;;;;;10.40;2.80;;;;;29.70;95686.00;;;;8320322;28;20291;-83
2022/06/24 13:47:44;;;;;;;8.80;2.30;;;;;29.80;95690.00;;;;8319067;28;20725;-83
2022/06/24 13:51:47;;;;;;;9.25;2.40;;;;;29.90;95687.00;;;;8316277;28;20870;-84
2022/06/24 13:55:51;;;;;;;5.72;2.40;;;;;30.20;95679.00;;;;8306711;28;20292;-83
2022/06/24 13:59:56;;;;;;;5.43;2.22;;;;;30.80;95688.00;;;;8318576;28;20312;-83
2022/06/24 14:03:59;;;;;;;5.00;2.35;;;;;30.90;95691.00;;;;8320811;28;20312;-86
2022/06/24 14:08:02;;;;;;;4.38;2.28;;;;;30.80;95701.00;;;;8319199;28;20583;-86
2022/06/24 14:12:07;;;;;;;4.38;2.00;;;;;30.40;95700.00;;;;8306519;28;20249;-87
2022/06/24 14:16:12;;;;;;;9.30;2.42;;;;;30.20;95708.00;;;;8311846;28;20276;-84
2022/06/24 14:20:35;;;;;;;5.68;2.15;;;;;29.70;95703.00;;;;8318915;28;20885;-85
2022/06/24 14:24:38;;;;;;;6.10;2.40;;;;;29.50;95706.00;;;;8325613;28;20229;-82
2022/06/24 14:28:41;;;;;;;6.35;2.03;;;;;29.40;95704.00;;;;8326881;28;20304;-82
2022/06/24 14:32:54;;;;;;;3.72;1.88;;;;;28.90;95701.00;;;;8323265;28;20193;-81
2022/06/24 14:36:57;;;;;;;4.65;1.98;;;;;28.40;95703.00;;;;8312446;28;20555;-82
2022/06/24 14:41:00;;;;;;;5.82;1.90;;;;;28.20;95707.00;;;;8316036;28;20280;-82
2022/06/24 14:45:09;;;;;;;6.07;1.95;;;;;28.10;95711.00;;;;8323282;28;20742;-82
2022/06/24 14:49:13;;;;;;;4.45;1.90;;;;;28.20;95707.00;;;;8314555;28;20232;-82
2022/06/24 14:53:32;;;;;;;4.93;1.83;;;;;28.40;95717.00;;;;8322705;28;20201;-81
2022/06/24 14:57:36;;;;;;;4.70;1.80;;;;;28.60;95711.00;;;;8315887;28;20277;-80
2022/06/24 15:01:39;;;;;;;2.88;1.90;;;;;29.00;95704.00;;;;8317947;28;20313;-83
2022/06/24 15:05:44;;;;;;;3.50;1.73;;;;;29.40;95690.00;;;;8325389;28;20292;-80
2022/06/24 15:09:47;;;;;;;7.22;1.98;;;;;30.20;95694.00;;;;8326292;28;20300;-79
2022/06/24 15:13:50;;;;;;;3.60;1.70;;;;;30.80;95698.00;;;;8323796;28;20620;-81
2022/06/24 15:17:54;;;;;;;4.05;1.85;;;;;31.40;95684.00;;;;8321204;28;20190;-80
2022/06/24 15:21:58;;;;;;;3.60;2.00;;;;;32.40;95673.00;;;;8321008;28;20285;-81
2022/06/24 15:26:01;;;;;;;5.72;1.63;;;;;32.30;95668.00;;;;8325146;28;20285;-80
2022/06/24 15:30:06;;;;;;;3.25;1.92;;;;;32.80;95674.00;;;;8324642;28;20736;-79
2022/06/24 15:34:09;;;;;;;3.00;1.55;;;;;32.90;95662.00;;;;8323709;28;20559;-80
2022/06/24 15:38:14;;;;;;;4.20;1.60;;;;;32.60;95658.00;;;;8318038;28;20293;-80
2022/06/24 15:42:17;;;;;;;5.43;1.88;;;;;32.30;95660.00;;;;8323591;28;20202;-79
2022/06/24 15:46:21;;;;;;;3.47;1.60;;;;;31.50;95661.00;;;;8323490;28;20201;-80
2022/06/24 15:50:25;;;;;;;3.88;1.48;;;;;30.90;95666.00;;;;8324549;28;20217;-80
2022/06/24 15:54:30;;;;;;;5.25;1.95;;;;;30.50;95676.00;;;;8312208;28;20200;-79
2022/06/24 15:58:33;;;;;;;3.97;2.05;;;;;30.10;95674.00;;;;8323666;28;20684;-80
2022/06/24 16:02:36;;;;;;;2.95;1.75;;;;;29.80;95673.00;;;;8319701;28;20237;-79
2022/06/24 16:06:39;;;;;;;3.55;2.00;;;;;29.50;95665.00;;;;8315469;28;20212;-79
2022/06/24 16:10:44;;;;;;;3.58;1.80;;;;;29.30;95667.00;;;;8321565;28;20570;-83
2022/06/24 16:14:47;;;;;;;4.05;2.00;;;;;29.10;95668.00;;;;8320722;28;20277;-83
2022/06/24 16:18:57;;;;;;;5.28;2.00;;;;;28.90;95673.00;;;;8319723;28;20197;-83
2022/06/24 16:23:00;;;;;;;5.25;2.08;;;;;28.60;95678.00;;;;8320650;28;20636;-79
2022/06/24 16:31:26;;;;;;;3.08;1.77;;;;;28.00;95666.00;;;;8319703;28;20293;-81
2022/06/24 16:35:29;;;;;;;6.43;2.05;;;;;27.70;95662.00;;;;8320673;28;20193;-80
2022/06/24 16:39:32;;;;;;;2.33;1.88;;;;;27.50;95653.00;;;;8318143;28;20236;-78
2022/06/24 16:43:38;;;;;;;7.53;2.22;;;;;27.40;95645.00;;;;8316711;28;20647;-84
2022/06/24 16:47:41;;;;;;;9.02;2.58;;;;;27.20;95637.00;;;;8314646;28;20244;-78
2022/06/24 16:51:44;;;;;;;6.03;2.35;;;;;26.80;95616.00;;;;8316477;28;20643;-83
2022/06/24 16:55:47;;;;;;;3.25;1.90;;;;;26.50;95600.00;;;;8317234;28;20280;-79
2022/06/24 16:59:52;;;;;;;5.32;2.35;;;;;26.30;95593.00;;;;8318807;28;20852;-83
2022/06/24 17:03:56;;;;;;;3.50;2.15;;;;;25.90;95597.00;;;;8332527;28;20324;-81
2022/06/24 17:07:59;;;;;;;4.30;1.95;;;;;25.80;95603.00;;;;8338868;28;20307;-81
2022/06/24 17:12:03;;;;;;;11.63;2.20;;;;;25.90;95605.00;;;;8331871;28;20204;-80
2022/06/24 17:16:08;;;;;;;3.17;2.17;;;;;26.10;95634.00;;;;8324884;28;20283;-79
2022/06/24 17:20:13;;;;;;;6.32;2.15;;;;;26.00;95628.00;;;;8327930;28;20882;-81
2022/06/24 17:24:16;;;;;;;3.17;1.90;;;;;25.80;95647.00;;;;8332165;28;20205;-80
2022/06/24 17:28:19;;;;;;;3.78;1.95;;;;;25.80;95646.00;;;;8319069;28;20682;-79
2022/06/24 17:32:24;;;;;;;4.82;2.22;;;;;25.90;95644.00;;;;8319551;28;20320;-79
2022/06/24 17:36:27;;;;;;;5.07;1.92;;;;;25.80;95643.00;;;;8314291;28;20225;-79
2022/06/24 17:40:30;;;;;;;5.72;2.30;;;;;25.80;95637.00;;;;8327831;28;20280;-79
2022/06/24 17:44:34;;;;;;;3.30;1.95;;;;;25.80;95641.00;;;;8328062;28;20196;-79
2022/06/24 17:48:38;;;;;;;11.35;2.47;;;;;25.70;95636.00;;;;8326665;28;20257;-81
2022/06/24 17:52:41;;;;;;;10.02;2.33;;;;;25.60;95639.00;;;;8331815;28;21548;-83
2022/06/24 17:56:45;;;;;;;4.20;2.20;;;;;25.60;95638.00;;;;8325127;28;20623;-79
2022/06/24 18:00:48;;;;;;;7.32;2.60;;;;;25.50;95632.00;;;;8343229;28;20185;-82
2022/06/24 18:04:52;;;;;;;4.85;2.35;;;;;25.30;95625.00;;;;8323114;28;20302;-78
2022/06/24 18:08:56;;;;;;;6.55;2.92;;;;;25.10;95624.00;;;;8324033;28;20311;-83
2022/06/24 18:12:59;;;;;;;5.60;2.35;;;;;25.00;95622.00;;;;8325112;28;20217;-80
2022/06/24 18:17:02;;;;;;;6.07;2.22;;;;;24.90;95636.00;;;;8324432;28;20219;-80
2022/06/24 18:21:07;;;;;;;5.10;2.20;;;;;24.80;95637.00;;;;8325661;28;20213;-81
2022/06/24 18:25:10;;;;;;;4.50;2.05;;;;;24.60;95645.00;;;;8322042;28;20719;-82
2022/06/24 18:29:14;;;;;;;3.65;1.90;;;;;24.50;95648.00;;;;8329098;28;20261;-80
2022/06/24 18:33:17;;;;;;;5.40;2.17;;;;;24.40;95665.00;;;;8333715;28;20201;-81
2022/06/24 18:37:22;;;;;;;5.60;1.90;;;;;24.30;95663.00;;;;8336329;28;20205;-82
2022/06/24 18:41:25;;;;;;;2.03;1.80;;;;;24.20;95680.00;;;;8322299;28;20220;-82
2022/06/24 18:45:28;;;;;;;2.25;1.63;;;;;24.10;95688.00;;;;8310034;28;20209;-81
2022/06/24 18:49:32;;;;;;;1.38;1.20;;;;;23.80;95696.00;;;;8324602;28;20883;-81
2022/06/24 18:53:36;;;;;;;2.45;1.27;;;;;23.70;95711.00;;;;8333799;28;20292;-81
2022/06/24 18:57:40;;;;;;;3.22;1.20;;;;;23.50;95724.00;;;;8333918;28;20197;-80
2022/06/24 19:01:43;;;;;;;1.80;1.38;;;;;23.30;95724.00;;;;8320293;28;20316;-79
2022/06/24 19:05:47;;;;;;;3.63;1.38;;;;;23.20;95734.00;;;;8319091;28;20610;-81
2022/06/24 19:09:53;;;;;;;2.13;1.50;;;;;23.10;95746.00;;;;8323205;28;20594;-82
2022/06/24 19:13:56;;;;;;;3.00;1.75;;;;;23.00;95751.00;;;;8326510;28;20305;-82
2022/06/24 19:17:59;;;;;;;1.88;1.40;;;;;22.90;95757.00;;;;8328486;28;20204;-80
2022/06/24 19:22:03;;;;;;;3.83;1.30;;;;;22.80;95746.00;;;;8323740;28;20770;-81
2022/06/24 19:26:07;;;;;;;3.47;1.50;;;;;22.70;95761.00;;;;8323961;28;20289;-77
2022/06/24 19:30:11;;;;;;;5.38;1.70;;;;;22.60;95765.00;;;;8317767;28;20300;-81
2022/06/24 19:34:15;;;;;;;2.42;1.50;;;;;22.40;95772.00;;;;8321055;28;20283;-82
2022/06/24 19:38:18;;;;;;;2.50;1.92;;;;;22.30;95776.00;;;;8320781;28;20284;-80
2022/06/24 19:42:30;;;;;;;5.13;2.35;;;;;22.20;95792.00;;;;8319900;28;20204;-81
2022/06/24 19:46:34;;;;;;;3.35;1.80;;;;;22.20;95803.00;;;;8320418;28;20328;-80
2022/06/24 19:50:37;;;;;;;4.47;1.98;;;;;22.20;95812.00;;;;8316163;28;20264;-80
2022/06/24 19:54:48;;;;;;;4.07;1.77;;;;;22.20;95829.00;;;;8322726;28;20263;-81
2022/06/24 19:58:54;;;;;;;6.38;1.85;;;;;22.30;95837.00;;;;8323420;28;20313;-81
2022/06/24 20:07:17;;;;;;;3.53;2.15;;;;;22.20;95860.00;;;;8319257;28;20300;-81
2022/06/24 20:15:43;;;;;;;1.75;1.65;;;;;22.30;95872.00;;;;8322439;28;20702;-82
2022/06/24 20:19:47;;;;;;;1.88;1.65;;;;;22.30;95874.00;;;;8320721;28;20229;-81
2022/06/24 20:23:51;;;;;;;3.90;1.45;;;;;22.30;95877.00;;;;8322538;28;20284;-81
2022/06/24 20:27:54;;;;;;;1.70;1.60;;;;;22.20;95876.00;;;;8314546;28;20288;-81
2022/06/24 20:31:59;;;;;;;2.10;1.75;;;;;22.10;95859.00;;;;8322957;28;20308;-80
2022/06/24 20:36:03;;;;;;;1.95;1.50;;;;;22.10;95849.00;;;;8313883;28;20670;-80
2022/06/24 20:40:08;;;;;;;2.33;1.80;;;;;21.90;95851.00;;;;8320820;28;20284;-80
2022/06/24 20:44:11;;;;;;;4.25;2.10;;;;;21.50;95886.00;;;;8322850;28;20210;-79
2022/06/24 20:48:16;;;;;;;12.05;2.38;;;;;20.50;95883.00;;;;8320796;28;20277;-71